Time;durP1;ratioP1;P1;durP2;ratioP2;P2;SDS_P1;SDS_P2;PMS_P1;PMS_P2;Temp;Humidity;BMP_temperature;BMP_pressure;BME280_temperature;BME280_humidity;BME280_pressure;Samples;Min_cycle;Max_cycle;Signal;HPM_P1;HPM_P2
2023/01/12 00:01:09;;;;;;;32.63;6.67;;;9.70;99.90;;;;;;5033806;28;20661;-87
2023/01/12 00:03:36;;;;;;;23.97;5.93;;;9.70;99.90;;;;;;5037461;28;20527;-88
2023/01/12 00:06:06;;;;;;;28.40;7.27;;;9.70;99.90;;;;;;5064856;28;20280;-88
2023/01/12 00:08:33;;;;;;;42.47;7.20;;;9.70;99.90;;;;;;5069606;28;20617;-84
2023/01/12 00:11:00;;;;;;;29.80;5.43;;;9.70;99.90;;;;;;5030962;28;20209;-82
2023/01/12 00:13:28;;;;;;;35.30;6.97;;;9.70;99.90;;;;;;5031213;28;20285;-86
2023/01/12 00:18:41;;;;;;;47.03;7.27;;;9.70;99.90;;;;;;5031158;28;20217;-86
2023/01/12 00:21:10;;;;;;;33.27;6.33;;;9.70;99.90;;;;;;5031819;28;20215;-89
2023/01/12 00:23:36;;;;;;;26.50;6.27;;;9.70;99.90;;;;;;5031059;28;20203;-87
2023/01/12 00:26:04;;;;;;;36.93;7.57;;;9.70;99.90;;;;;;5027230;28;20206;-87
2023/01/12 00:28:31;;;;;;;35.90;7.47;;;9.80;99.90;;;;;;5026453;28;20571;-80
2023/01/12 00:31:01;;;;;;;24.37;6.77;;;9.80;99.90;;;;;;5025376;28;20289;-80
2023/01/12 00:33:28;;;;;;;33.90;6.77;;;9.70;99.90;;;;;;5025887;28;20203;-78
2023/01/12 00:35:55;;;;;;;35.67;7.60;;;9.70;99.90;;;;;;5025644;28;20611;-78
2023/01/12 00:38:25;;;;;;;31.97;6.40;;;9.70;99.90;;;;;;5024745;28;20228;-78
2023/01/12 00:40:52;;;;;;;38.70;7.73;;;9.70;99.90;;;;;;5025703;28;20199;-77
2023/01/12 00:46:04;;;;;;;40.13;8.87;;;9.70;99.90;;;;;;5025723;28;20233;-79
2023/01/12 00:48:31;;;;;;;33.73;6.73;;;9.70;99.90;;;;;;5025423;28;20324;-79
2023/01/12 00:50:57;;;;;;;33.97;7.50;;;9.70;99.90;;;;;;5025027;28;20254;-78
2023/01/12 00:53:26;;;;;;;38.23;8.20;;;9.70;99.90;;;;;;5024292;28;20209;-80
2023/01/12 00:55:53;;;;;;;31.17;6.40;;;9.70;99.90;;;;;;5025186;28;20203;-84
2023/01/12 00:58:20;;;;;;;33.10;6.47;;;9.70;99.90;;;;;;5023679;28;20242;-79
2023/01/12 01:00:46;;;;;;;33.73;6.33;;;9.70;99.90;;;;;;5024393;28;20658;-79
2023/01/12 01:03:13;;;;;;;34.03;7.00;;;9.70;99.90;;;;;;5029015;28;20566;-82
2023/01/12 01:05:40;;;;;;;29.87;6.53;;;9.70;99.90;;;;;;5028408;28;20653;-79
2023/01/12 01:08:07;;;;;;;27.07;6.07;;;9.70;99.90;;;;;;5029616;28;20583;-83
2023/01/12 01:10:35;;;;;;;32.77;7.90;;;9.70;99.90;;;;;;5029916;28;20221;-88
2023/01/12 01:13:02;;;;;;;30.50;7.00;;;9.70;99.90;;;;;;5029422;28;20213;-86
2023/01/12 01:15:29;;;;;;;25.90;6.43;;;9.70;99.90;;;;;;5030842;28;20293;-85
2023/01/12 01:17:56;;;;;;;33.37;6.67;;;9.70;99.90;;;;;;5031288;28;20233;-89
2023/01/12 01:20:23;;;;;;;37.80;8.23;;;9.70;99.90;;;;;;5029798;28;20194;-79
2023/01/12 01:22:50;;;;;;;32.50;8.03;;;9.70;99.90;;;;;;5029322;28;20290;-92
2023/01/12 01:25:17;;;;;;;46.90;8.10;;;9.70;99.90;;;;;;5029986;28;20297;-93
2023/01/12 01:27:45;;;;;;;44.30;9.00;;;9.60;99.90;;;;;;5027851;28;20294;-93
2023/01/12 01:30:13;;;;;;;38.00;8.13;;;9.60;99.90;;;;;;5046175;28;20245;-93
2023/01/12 01:32:40;;;;;;;40.33;10.00;;;9.70;99.90;;;;;;5049048;28;20216;-81
2023/01/12 01:35:07;;;;;;;39.90;9.23;;;9.70;99.90;;;;;;5048133;28;20595;-82
2023/01/12 01:37:34;;;;;;;42.07;9.43;;;9.70;99.90;;;;;;5029613;28;20594;-86
2023/01/12 01:40:01;;;;;;;41.43;9.60;;;9.60;99.90;;;;;;5031627;28;20220;-92
2023/01/12 01:42:27;;;;;;;50.80;11.10;;;9.60;99.90;;;;;;5030476;28;20281;-85
2023/01/12 01:44:58;;;;;;;44.83;10.53;;;9.60;99.90;;;;;;5030469;28;20206;-87
2023/01/12 01:47:31;;;;;;;50.03;8.70;;;9.70;99.90;;;;;;5043736;28;20255;-93
2023/01/12 01:50:01;;;;;;;48.77;10.83;;;9.70;99.90;;;;;;5049830;28;20301;-86
2023/01/12 01:52:33;;;;;;;62.60;11.00;;;9.60;99.90;;;;;;5049698;28;20240;-82
2023/01/12 01:55:06;;;;;;;60.60;10.93;;;9.70;99.90;;;;;;5030274;28;20285;-85
2023/01/12 01:57:41;;;;;;;54.57;11.37;;;9.70;99.90;;;;;;5026720;28;20297;-92
2023/01/12 02:00:12;;;;;;;70.90;11.77;;;9.80;99.90;;;;;;5026359;28;20224;-81
2023/01/12 02:02:40;;;;;;;50.87;11.37;;;9.80;99.90;;;;;;5028866;28;20206;-79
2023/01/12 02:05:07;;;;;;;55.73;12.33;;;9.80;99.90;;;;;;5029577;28;20203;-87
2023/01/12 02:07:34;;;;;;;72.87;11.80;;;9.80;99.90;;;;;;5026406;28;20273;-86
2023/01/12 02:10:02;;;;;;;54.93;11.13;;;9.90;99.90;;;;;;5031010;28;20206;-91
2023/01/12 02:18:10;;;;;;;71.17;12.70;;;9.80;99.90;;;;;;5032229;28;20260;-83
2023/01/12 02:21:06;;;;;;;60.30;10.87;;;9.80;99.90;;;;;;5043044;28;20190;-93
2023/01/12 02:23:59;;;;;;;56.93;11.83;;;9.80;99.90;;;;;;5051587;28;20216;-93
2023/01/12 02:27:11;;;;;;;56.73;11.23;;;9.80;99.90;;;;;;5051142;28;20206;-92
2023/01/12 02:30:05;;;;;;;45.33;11.13;;;9.80;99.90;;;;;;5034689;28;20333;-90
2023/01/12 02:32:39;;;;;;;56.37;11.57;;;9.90;99.90;;;;;;5012137;28;20196;-86
2023/01/12 02:35:19;;;;;;;51.30;9.87;;;9.90;99.90;;;;;;5012150;28;20202;-93
2023/01/12 02:37:53;;;;;;;46.43;9.27;;;9.90;99.90;;;;;;5011255;28;20912;-88
2023/01/12 02:40:26;;;;;;;53.87;10.13;;;9.90;99.90;;;;;;5012303;28;20234;-93
2023/01/12 02:43:02;;;;;;;42.20;8.57;;;9.90;99.90;;;;;;5027423;28;20234;-93
2023/01/12 02:45:38;;;;;;;46.33;9.37;;;9.90;99.90;;;;;;5030131;28;20202;-93
2023/01/12 02:48:13;;;;;;;53.53;10.03;;;9.90;99.90;;;;;;5027859;28;20908;-81
2023/01/12 02:50:45;;;;;;;47.70;9.43;;;9.90;99.90;;;;;;5029244;28;20190;-89
2023/01/12 02:53:18;;;;;;;49.60;9.57;;;9.90;99.90;;;;;;5026622;28;20297;-90
2023/01/12 02:55:46;;;;;;;43.57;9.20;;;9.90;99.90;;;;;;5011417;28;20200;-88
2023/01/12 02:58:17;;;;;;;55.27;10.67;;;9.90;99.90;;;;;;5008861;28;20254;-93
2023/01/12 03:00:48;;;;;;;44.83;9.27;;;9.90;99.90;;;;;;5011123;28;20604;-89
2023/01/12 03:03:16;;;;;;;52.17;9.70;;;9.90;99.90;;;;;;5011494;28;20207;-89
2023/01/12 03:05:43;;;;;;;49.37;8.90;;;9.90;99.90;;;;;;5023627;28;20949;-90
2023/01/12 03:08:14;;;;;;;50.10;10.33;;;9.80;99.90;;;;;;5031427;28;20588;-84
2023/01/12 03:11:03;;;;;;;49.73;8.53;;;9.80;99.90;;;;;;5034068;28;20579;-88
2023/01/12 03:13:33;;;;;;;55.83;10.27;;;9.80;99.90;;;;;;5016493;28;20203;-91
2023/01/12 03:16:02;;;;;;;37.37;8.43;;;9.70;99.90;;;;;;5014450;28;20853;-90
2023/01/12 03:18:34;;;;;;;35.43;7.17;;;9.70;99.90;;;;;;5014496;28;20219;-92
2023/01/12 03:21:07;;;;;;;46.17;7.83;;;9.60;99.90;;;;;;5020595;28;20298;-90
2023/01/12 03:23:42;;;;;;;45.50;8.10;;;9.60;99.90;;;;;;5034328;28;20201;-88
2023/01/12 03:26:12;;;;;;;55.77;9.33;;;9.60;99.90;;;;;;5034158;28;20229;-83
2023/01/12 03:28:45;;;;;;;41.73;7.80;;;9.60;99.90;;;;;;5031093;28;20266;-85
2023/01/12 03:31:14;;;;;;;41.93;8.37;;;9.50;99.90;;;;;;5028050;28;20198;-89
2023/01/12 03:33:44;;;;;;;42.97;9.07;;;9.60;99.90;;;;;;5031680;28;20197;-88
2023/01/12 03:36:20;;;;;;;40.60;7.30;;;9.60;99.90;;;;;;5039819;28;20202;-84
2023/01/12 03:38:59;;;;;;;40.20;7.57;;;9.70;99.90;;;;;;5030716;28;20213;-85
2023/01/12 03:41:36;;;;;;;38.20;6.80;;;9.70;99.90;;;;;;5030455;28;20218;-84
2023/01/12 03:44:08;;;;;;;31.07;5.53;;;9.70;99.90;;;;;;5029869;28;20213;-79
2023/01/12 03:46:40;;;;;;;21.43;5.50;;;9.70;99.90;;;;;;5030761;28;20390;-79
2023/01/12 03:49:14;;;;;;;22.63;4.67;;;9.70;99.90;;;;;;5030100;28;20210;-79
2023/01/12 03:51:45;;;;;;;17.67;3.57;;;9.70;99.90;;;;;;5030385;28;20249;-86
2023/01/12 03:54:14;;;;;;;14.43;3.33;;;9.70;99.90;;;;;;5031261;28;20214;-84
2023/01/12 03:56:44;;;;;;;12.90;3.17;;;9.70;99.90;;;;;;5030413;28;20301;-86
2023/01/12 03:59:11;;;;;;;9.57;2.60;;;9.70;99.90;;;;;;5028861;28;20281;-84
2023/01/12 04:01:40;;;;;;;8.97;2.77;;;9.80;99.90;;;;;;5029308;28;20850;-84
2023/01/12 04:04:08;;;;;;;8.67;1.90;;;9.80;99.90;;;;;;5028866;28;20206;-81
2023/01/12 04:06:35;;;;;;;5.40;2.30;;;9.80;99.90;;;;;;5027800;28;20202;-82
2023/01/12 04:09:02;;;;;;;9.60;2.30;;;9.80;99.90;;;;;;5028409;28;20325;-83
2023/01/12 04:14:13;;;;;;;8.03;1.60;;;9.90;99.90;;;;;;5027716;28;20931;-79
2023/01/12 04:16:40;;;;;;;6.90;2.13;;;9.90;99.90;;;;;;5028000;28;20198;-82
2023/01/12 04:19:09;;;;;;;5.03;1.73;;;10.00;99.90;;;;;;5028551;28;20222;-87
2023/01/12 04:24:20;;;;;;;9.27;2.80;;;10.00;99.90;;;;;;5028444;28;20855;-86
2023/01/12 04:26:46;;;;;;;12.90;3.13;;;10.10;99.90;;;;;;5029005;28;20202;-86
2023/01/12 04:29:13;;;;;;;9.17;2.70;;;10.10;99.90;;;;;;5029667;28;20252;-79
2023/01/12 04:31:40;;;;;;;13.27;2.87;;;10.10;99.90;;;;;;5029375;28;20706;-86
2023/01/12 04:34:09;;;;;;;12.37;3.10;;;10.10;99.90;;;;;;5030175;28;20207;-90
2023/01/12 04:36:36;;;;;;;15.00;3.50;;;10.00;99.90;;;;;;5026352;28;20202;-80
2023/01/12 04:39:04;;;;;;;19.07;4.47;;;10.00;99.90;;;;;;5028331;28;20229;-81
2023/01/12 04:41:31;;;;;;;15.30;3.03;;;10.00;99.90;;;;;;5028067;28;20502;-80
2023/01/12 04:43:57;;;;;;;9.53;3.10;;;10.00;99.90;;;;;;5027026;28;20206;-82
2023/01/12 04:46:24;;;;;;;18.63;4.43;;;10.00;99.90;;;;;;5026291;28;20702;-79
2023/01/12 04:48:51;;;;;;;17.80;3.47;;;10.00;99.90;;;;;;5026807;28;20199;-79
2023/01/12 04:51:19;;;;;;;22.53;4.30;;;10.00;99.90;;;;;;5026145;28;20195;-80
2023/01/12 04:53:47;;;;;;;28.63;5.17;;;10.00;99.90;;;;;;5030461;28;20727;-81
2023/01/12 04:56:14;;;;;;;20.23;4.20;;;10.00;99.90;;;;;;5028764;28;20205;-82
2023/01/12 04:58:42;;;;;;;25.83;4.40;;;10.00;99.90;;;;;;5028416;28;20317;-85
2023/01/12 05:01:10;;;;;;;27.87;4.77;;;10.00;99.90;;;;;;5028335;28;20455;-89
2023/01/12 05:03:37;;;;;;;27.90;5.53;;;10.00;99.90;;;;;;5025270;28;20198;-78
2023/01/12 05:06:04;;;;;;;27.63;5.53;;;10.00;99.90;;;;;;5038427;28;20697;-79
2023/01/12 05:11:17;;;;;;;38.77;8.43;;;10.00;99.90;;;;;;5020436;28;20318;-80
2023/01/12 05:13:45;;;;;;;43.47;7.87;;;10.00;99.90;;;;;;5025911;28;20676;-79
2023/01/12 05:16:14;;;;;;;51.43;9.97;;;10.10;99.90;;;;;;5025823;28;20281;-78
2023/01/12 05:18:41;;;;;;;44.40;8.77;;;10.10;99.90;;;;;;5024469;28;20226;-80
2023/01/12 05:21:08;;;;;;;39.00;8.43;;;10.10;99.90;;;;;;5025978;28;20206;-79
2023/01/12 05:23:37;;;;;;;53.80;10.67;;;10.20;99.90;;;;;;5026059;28;20234;-85
2023/01/12 05:26:06;;;;;;;63.23;11.70;;;10.20;99.90;;;;;;5025662;28;20225;-81
2023/01/12 05:28:33;;;;;;;57.53;10.63;;;10.20;99.90;;;;;;5026231;28;20242;-79
2023/01/12 05:31:04;;;;;;;55.37;10.27;;;10.30;99.90;;;;;;5025146;28;20681;-79
2023/01/12 05:33:31;;;;;;;52.43;10.17;;;10.30;99.90;;;;;;5024849;28;20293;-84
2023/01/12 05:35:58;;;;;;;65.60;11.63;;;10.30;99.90;;;;;;5028193;28;20206;-82
2023/01/12 05:38:25;;;;;;;50.00;12.30;;;10.40;99.90;;;;;;5045395;28;20210;-78
2023/01/12 05:40:53;;;;;;;44.53;11.60;;;10.40;99.90;;;;;;5036867;28;20210;-82
2023/01/12 05:46:06;;;;;;;64.13;12.77;;;10.50;99.90;;;;;;5042340;28;20298;-83
2023/01/12 05:48:33;;;;;;;64.37;11.10;;;10.50;99.90;;;;;;5042084;28;20229;-79
2023/01/12 05:51:02;;;;;;;62.83;11.23;;;10.50;99.90;;;;;;5025606;28;20486;-78
2023/01/12 05:53:29;;;;;;;50.87;10.10;;;10.50;99.90;;;;;;5024805;28;20210;-82
2023/01/12 05:55:58;;;;;;;58.40;10.70;;;10.60;99.90;;;;;;5024455;28;20576;-82
2023/01/12 05:58:25;;;;;;;58.60;10.67;;;10.60;99.90;;;;;;5023694;28;20210;-82
2023/01/12 06:00:52;;;;;;;56.17;10.40;;;10.60;99.90;;;;;;5023608;28;20228;-79
2023/01/12 06:03:19;;;;;;;41.77;10.23;;;10.60;99.90;;;;;;5023760;28;20202;-81
2023/01/12 06:05:53;;;;;;;60.20;10.17;;;10.60;99.90;;;;;;5024045;28;20220;-80
2023/01/12 06:08:20;;;;;;;54.03;10.80;;;10.70;99.90;;;;;;5024101;28;20199;-79
2023/01/12 06:10:46;;;;;;;64.47;12.57;;;10.60;99.90;;;;;;5023897;28;20550;-84
2023/01/12 06:16:04;;;;;;;60.67;13.47;;;10.70;99.90;;;;;;5040741;28;20201;-81
2023/01/12 06:18:34;;;;;;;62.20;10.97;;;10.70;99.90;;;;;;5024488;28;20210;-82
2023/01/12 06:21:00;;;;;;;59.73;11.20;;;10.70;99.90;;;;;;5024861;28;20237;-79
2023/01/12 06:23:28;;;;;;;57.97;10.73;;;10.70;99.90;;;;;;5024619;28;20321;-84
2023/01/12 06:25:55;;;;;;;56.40;10.33;;;10.70;99.90;;;;;;5024780;28;20226;-79
2023/01/12 06:28:24;;;;;;;63.37;12.40;;;10.70;99.90;;;;;;5024371;28;20238;-81
2023/01/12 06:30:58;;;;;;;60.23;11.53;;;10.70;99.90;;;;;;5024514;28;20297;-78
2023/01/12 06:33:25;;;;;;;51.00;10.27;;;10.70;99.90;;;;;;5023873;28;20587;-80
2023/01/12 06:35:53;;;;;;;65.13;11.07;;;10.70;99.90;;;;;;5022835;28;20511;-79
2023/01/12 06:38:21;;;;;;;64.47;12.07;;;10.70;99.90;;;;;;5024549;28;20257;-82
2023/01/12 06:40:48;;;;;;;69.30;12.50;;;10.70;99.90;;;;;;5043698;28;20662;-82
2023/01/12 06:43:13;;;;;;;49.73;10.30;;;10.70;99.90;;;;;;5034790;28;20917;-81
2023/01/12 06:45:42;;;;;;;51.00;9.77;;;10.80;99.90;;;;;;5024028;28;20206;-79
2023/01/12 06:48:09;;;;;;;57.37;10.70;;;10.80;99.90;;;;;;5025291;28;20233;-80
2023/01/12 06:50:37;;;;;;;73.43;11.67;;;10.80;99.90;;;;;;5023621;28;20225;-84
2023/01/12 06:53:05;;;;;;;56.40;10.67;;;10.80;99.90;;;;;;5024213;28;20225;-80
2023/01/12 06:55:32;;;;;;;51.97;9.73;;;10.80;99.90;;;;;;5023834;28;20211;-78
2023/01/12 06:58:02;;;;;;;57.00;9.63;;;10.80;99.90;;;;;;5024239;28;20198;-81
2023/01/12 07:00:29;;;;;;;55.93;11.07;;;10.80;99.90;;;;;;5025141;28;20764;-81
2023/01/12 07:02:57;;;;;;;53.73;10.37;;;10.80;99.90;;;;;;5023922;28;20230;-80
2023/01/12 07:05:24;;;;;;;47.37;10.63;;;10.80;99.90;;;;;;5023456;28;20806;-82
2023/01/12 07:07:58;;;;;;;52.33;10.57;;;10.80;99.90;;;;;;5024195;28;20195;-79
2023/01/12 07:10:25;;;;;;;50.60;9.90;;;10.80;99.90;;;;;;5024258;28;20466;-81
2023/01/12 07:12:51;;;;;;;47.80;9.07;;;10.80;99.90;;;;;;5022907;28;20199;-86
2023/01/12 07:15:18;;;;;;;51.63;9.83;;;10.80;99.90;;;;;;5024356;28;20635;-79
2023/01/12 07:17:45;;;;;;;60.50;11.40;;;10.80;99.90;;;;;;5022649;28;20203;-81
2023/01/12 07:20:14;;;;;;;55.33;10.03;;;10.80;99.90;;;;;;5024130;28;20218;-77
2023/01/12 07:22:40;;;;;;;48.87;10.20;;;10.90;99.90;;;;;;5024056;28;20202;-79
2023/01/12 07:25:08;;;;;;;50.07;9.80;;;10.90;99.90;;;;;;5023838;28;20313;-80
2023/01/12 07:27:35;;;;;;;51.73;9.77;;;10.90;99.90;;;;;;5023955;28;20281;-78
2023/01/12 07:30:02;;;;;;;49.27;10.13;;;10.90;99.90;;;;;;5023725;28;20349;-78
2023/01/12 07:32:29;;;;;;;42.60;9.90;;;10.90;99.90;;;;;;5025099;28;20289;-80
2023/01/12 07:34:56;;;;;;;48.30;9.13;;;10.90;99.90;;;;;;5022728;28;20198;-83
2023/01/12 07:37:24;;;;;;;50.23;9.73;;;10.90;99.90;;;;;;5034386;28;20608;-79
2023/01/12 07:39:51;;;;;;;57.73;9.63;;;10.90;99.90;;;;;;5050083;28;20210;-91
2023/01/12 07:42:23;;;;;;;68.67;12.10;;;11.00;99.90;;;;;;5052072;28;20284;-89
2023/01/12 07:44:50;;;;;;;65.27;12.60;;;11.00;99.90;;;;;;5040939;28;20270;-86
2023/01/12 07:47:17;;;;;;;54.10;9.80;;;11.00;99.90;;;;;;5039015;28;20214;-85
2023/01/12 07:49:44;;;;;;;39.10;8.90;;;11.00;99.90;;;;;;5039417;28;20198;-86
2023/01/12 07:52:11;;;;;;;55.13;11.40;;;11.00;99.90;;;;;;5041572;28;20211;-87
2023/01/12 07:54:40;;;;;;;44.07;10.43;;;11.00;99.90;;;;;;5047531;28;20206;-89
2023/01/12 07:57:08;;;;;;;50.07;10.27;;;11.00;99.90;;;;;;5063062;28;20270;-93
2023/01/12 07:59:35;;;;;;;49.83;9.47;;;11.00;99.90;;;;;;5043735;28;20215;-82
2023/01/12 08:02:02;;;;;;;42.30;8.90;;;11.10;99.90;;;;;;5042125;28;20231;-91
2023/01/12 08:04:29;;;;;;;38.73;9.60;;;11.00;99.90;;;;;;5042306;28;20198;-90
2023/01/12 08:06:57;;;;;;;52.10;10.53;;;11.10;99.90;;;;;;5038827;28;20681;-82
2023/01/12 08:09:24;;;;;;;40.27;8.93;;;11.00;99.90;;;;;;5029587;28;20636;-83
2023/01/12 08:11:52;;;;;;;49.63;8.47;;;11.00;99.90;;;;;;5030652;28;20198;-81
2023/01/12 08:14:27;;;;;;;30.63;6.80;;;11.10;99.90;;;;;;5051533;28;20198;-89
2023/01/12 08:17:00;;;;;;;44.80;9.10;;;11.10;99.90;;;;;;5050705;28;20331;-90
2023/01/12 08:19:30;;;;;;;35.00;8.87;;;11.10;99.90;;;;;;5051890;28;20209;-87
2023/01/12 08:22:01;;;;;;;43.33;9.37;;;11.20;99.90;;;;;;5039303;28;20325;-80
2023/01/12 08:24:34;;;;;;;45.30;8.03;;;11.20;99.90;;;;;;5042232;28;20198;-81
2023/01/12 08:27:06;;;;;;;42.77;9.03;;;11.20;99.90;;;;;;5046153;28;20205;-89
2023/01/12 08:29:40;;;;;;;41.37;8.40;;;11.20;99.90;;;;;;5051751;28;20839;-89
2023/01/12 08:32:09;;;;;;;33.87;8.50;;;11.30;99.90;;;;;;5046987;28;20206;-83
2023/01/12 08:34:38;;;;;;;38.33;7.20;;;11.30;99.90;;;;;;5049600;28;20222;-81
2023/01/12 08:37:08;;;;;;;39.57;8.03;;;11.30;99.90;;;;;;5048216;28;20309;-83
2023/01/12 08:39:36;;;;;;;42.60;8.57;;;11.30;99.90;;;;;;5046664;28;20217;-84
2023/01/12 08:42:04;;;;;;;34.67;7.03;;;11.30;99.90;;;;;;5044771;28;20214;-81
2023/01/12 08:44:33;;;;;;;34.03;6.43;;;11.30;99.90;;;;;;5042128;28;20220;-81
2023/01/12 08:47:00;;;;;;;36.13;7.77;;;11.30;99.90;;;;;;5045276;28;20328;-78
2023/01/12 08:49:29;;;;;;;45.27;9.07;;;11.30;99.90;;;;;;5043669;28;20224;-79
2023/01/12 08:51:56;;;;;;;44.40;9.70;;;11.30;99.90;;;;;;5040961;28;20213;-82
2023/01/12 08:54:23;;;;;;;42.27;7.70;;;11.30;99.90;;;;;;5044149;28;20321;-87
2023/01/12 08:56:52;;;;;;;44.70;9.50;;;11.30;99.90;;;;;;5049585;28;20310;-89
2023/01/12 08:59:20;;;;;;;53.87;10.87;;;11.30;99.90;;;;;;5035324;28;20211;-89
2023/01/12 09:01:47;;;;;;;44.70;8.40;;;11.30;99.90;;;;;;5035130;28;20317;-86
2023/01/12 09:04:14;;;;;;;47.67;9.33;;;11.40;99.90;;;;;;5050775;28;20198;-84
2023/01/12 09:06:43;;;;;;;40.17;9.03;;;11.30;99.90;;;;;;5042140;28;20297;-78
2023/01/12 09:09:12;;;;;;;47.70;10.70;;;11.40;99.90;;;;;;5062776;28;20201;-81
2023/01/12 09:11:40;;;;;;;40.30;8.80;;;11.40;99.90;;;;;;5061485;28;20202;-77
2023/01/12 09:14:07;;;;;;;46.57;8.93;;;11.40;99.90;;;;;;5039305;28;20203;-79
2023/01/12 09:16:35;;;;;;;42.27;9.57;;;11.40;99.90;;;;;;5030553;28;20208;-77
2023/01/12 09:19:02;;;;;;;36.43;8.43;;;11.40;99.90;;;;;;5046461;28;20208;-86
2023/01/12 09:21:31;;;;;;;50.87;9.37;;;11.40;99.90;;;;;;5044555;28;20607;-78
2023/01/12 09:23:59;;;;;;;48.90;9.30;;;11.40;99.90;;;;;;5028815;28;20237;-78
2023/01/12 09:26:30;;;;;;;38.47;7.77;;;11.40;99.90;;;;;;5048339;28;20205;-78
2023/01/12 09:28:58;;;;;;;47.97;11.40;;;11.40;99.90;;;;;;5026328;28;20815;-77
2023/01/12 09:31:26;;;;;;;41.67;9.87;;;11.50;99.90;;;;;;5030329;28;20253;-78
2023/01/12 09:33:55;;;;;;;40.07;8.47;;;11.50;99.90;;;;;;5037917;28;20203;-80
2023/01/12 09:36:23;;;;;;;38.23;9.20;;;11.50;99.90;;;;;;5028101;28;20815;-79
2023/01/12 09:38:50;;;;;;;41.80;8.80;;;11.50;99.90;;;;;;5042058;28;20213;-79
2023/01/12 09:46:57;;;;;;;45.67;8.50;;;11.50;99.90;;;;;;5034871;28;20592;-77
2023/01/12 09:47:03;;;;;;;43.57;9.03;;;11.60;99.90;;;;;;5042990;28;20259;-78
2023/01/12 09:49:37;;;;;;;49.67;9.73;;;11.60;99.90;;;;;;5042121;28;20609;-77
2023/01/12 09:52:12;;;;;;;44.27;9.03;;;11.60;99.90;;;;;;5036926;28;20204;-79
2023/01/12 09:54:39;;;;;;;39.93;8.97;;;11.60;99.90;;;;;;5040828;28;20205;-86
2023/01/12 09:57:19;;;;;;;42.53;10.00;;;11.60;99.90;;;;;;5052848;28;20200;-85
2023/01/12 09:59:57;;;;;;;42.93;8.47;;;11.60;99.90;;;;;;5054259;28;20293;-83
2023/01/12 10:02:25;;;;;;;46.33;8.90;;;11.70;99.90;;;;;;5026784;28;20256;-79
2023/01/12 10:04:58;;;;;;;38.40;9.17;;;11.70;99.90;;;;;;5038135;28;20282;-78
2023/01/12 10:07:25;;;;;;;33.60;7.60;;;11.70;99.90;;;;;;5046072;28;20573;-80
2023/01/12 10:09:53;;;;;;;39.30;8.90;;;11.70;99.90;;;;;;5032605;28;20206;-81
2023/01/12 10:12:26;;;;;;;42.63;8.77;;;11.70;99.90;;;;;;5042830;28;20602;-83
2023/01/12 10:15:28;;;;;;;41.43;8.57;;;11.70;99.90;;;;;;5033712;28;20204;-82
2023/01/12 10:18:02;;;;;;;43.97;8.23;;;11.70;99.90;;;;;;5046785;28;20281;-86
2023/01/12 10:20:37;;;;;;;41.07;9.20;;;11.70;99.90;;;;;;5048621;28;20225;-85
2023/01/12 10:23:13;;;;;;;50.10;8.33;;;11.80;99.90;;;;;;5049087;28;20225;-86
2023/01/12 10:25:43;;;;;;;38.97;9.80;;;11.80;99.90;;;;;;5038750;28;20202;-84
2023/01/12 10:28:17;;;;;;;42.07;9.90;;;11.80;99.90;;;;;;5040462;28;20237;-86
2023/01/12 10:30:44;;;;;;;50.43;9.37;;;11.80;99.90;;;;;;5044223;28;20254;-83
2023/01/12 10:33:14;;;;;;;47.40;8.80;;;11.90;99.90;;;;;;5040903;28;20289;-83
2023/01/12 10:35:55;;;;;;;50.13;10.37;;;11.90;99.90;;;;;;5039826;28;20279;-79
2023/01/12 10:38:26;;;;;;;38.53;8.87;;;11.90;99.90;;;;;;5049186;28;20210;-86
2023/01/12 10:41:15;;;;;;;40.70;10.07;;;11.90;99.90;;;;;;5042038;28;20324;-79
2023/01/12 10:43:43;;;;;;;50.10;8.93;;;11.90;99.90;;;;;;5036717;28;20601;-78
2023/01/12 10:46:13;;;;;;;48.07;9.40;;;11.90;99.90;;;;;;5043654;28;20211;-82
2023/01/12 10:48:42;;;;;;;36.83;9.07;;;11.90;99.90;;;;;;5045729;28;20217;-78
2023/01/12 10:51:23;;;;;;;45.50;8.90;;;11.90;99.90;;;;;;5024027;28;20279;-78
2023/01/12 10:53:53;;;;;;;38.03;8.70;;;12.00;99.90;;;;;;5028516;28;20233;-84
2023/01/12 10:56:27;;;;;;;45.37;9.60;;;12.00;99.90;;;;;;5043716;28;20774;-82
2023/01/12 10:58:57;;;;;;;36.20;9.07;;;12.00;99.90;;;;;;5041452;28;20197;-82
2023/01/12 11:01:24;;;;;;;45.17;9.43;;;12.00;99.90;;;;;;5044371;28;20375;-81
2023/01/12 11:03:51;;;;;;;37.03;9.33;;;12.00;99.90;;;;;;5023924;28;20321;-83
2023/01/12 11:06:40;;;;;;;38.50;8.00;;;12.00;99.90;;;;;;5023538;28;20205;-83
2023/01/12 11:09:18;;;;;;;40.97;8.33;;;12.00;99.90;;;;;;5023412;28;20591;-82
2023/01/12 11:11:45;;;;;;;36.20;8.30;;;11.90;99.90;;;;;;5021818;28;20190;-79
2023/01/12 11:14:24;;;;;;;44.97;9.30;;;11.90;99.90;;;;;;5022647;28;20844;-79
2023/01/12 11:16:50;;;;;;;37.40;7.33;;;12.00;99.90;;;;;;5030892;28;20289;-77
2023/01/12 11:19:21;;;;;;;40.73;9.30;;;12.00;99.90;;;;;;5041835;28;20206;-80
2023/01/12 11:21:53;;;;;;;44.50;9.17;;;12.00;99.90;;;;;;5035523;28;20641;-80
2023/01/12 11:24:32;;;;;;;34.07;7.57;;;12.00;99.90;;;;;;5041665;28;20634;-79
2023/01/12 11:27:02;;;;;;;48.27;9.60;;;11.90;99.90;;;;;;5042820;28;20198;-81
2023/01/12 11:29:37;;;;;;;48.87;10.63;;;11.90;99.90;;;;;;5042141;28;20317;-77
2023/01/12 11:32:10;;;;;;;51.27;9.80;;;11.90;99.90;;;;;;5045041;28;20236;-81
2023/01/12 11:34:43;;;;;;;44.23;8.87;;;11.90;99.90;;;;;;5045061;28;20210;-77
2023/01/12 11:37:13;;;;;;;43.03;9.33;;;11.80;99.90;;;;;;5028182;28;20207;-80
2023/01/12 11:39:42;;;;;;;43.13;9.23;;;11.80;99.90;;;;;;5027002;28;20202;-82
2023/01/12 11:45:09;;;;;;;43.97;8.37;;;11.80;99.90;;;;;;5028830;28;20292;-79
2023/01/12 11:47:40;;;;;;;44.50;9.10;;;11.80;99.90;;;;;;5026555;28;20329;-80
2023/01/12 11:50:14;;;;;;;47.40;9.40;;;11.80;99.90;;;;;;5027527;28;20286;-80
2023/01/12 11:52:43;;;;;;;42.57;9.07;;;11.80;99.90;;;;;;5027604;28;20202;-81
2023/01/12 11:55:15;;;;;;;41.80;8.83;;;11.80;99.90;;;;;;5027281;28;20207;-76
2023/01/12 11:58:01;;;;;;;41.63;8.90;;;11.70;99.90;;;;;;5024270;28;20206;-77
2023/01/12 12:00:38;;;;;;;44.13;10.13;;;11.70;99.90;;;;;;5040997;28;20759;-79
2023/01/12 12:03:23;;;;;;;41.70;8.57;;;11.70;99.90;;;;;;5048555;28;20193;-77
2023/01/12 12:05:59;;;;;;;44.47;9.60;;;11.70;99.90;;;;;;5049867;28;20317;-82
2023/01/12 12:08:38;;;;;;;43.33;10.03;;;11.70;99.90;;;;;;5031849;28;20193;-79
2023/01/12 12:11:12;;;;;;;42.97;9.33;;;11.70;99.90;;;;;;5032310;28;20217;-79
2023/01/12 12:13:48;;;;;;;41.13;8.47;;;11.60;99.90;;;;;;5032163;28;20283;-78
2023/01/12 12:16:28;;;;;;;46.97;8.40;;;11.60;99.90;;;;;;5044915;28;20194;-78
2023/01/12 12:19:13;;;;;;;50.67;9.20;;;11.60;99.90;;;;;;5040888;28;20194;-77
2023/01/12 12:21:48;;;;;;;43.77;8.60;;;11.60;99.90;;;;;;5037929;28;20296;-78
2023/01/12 12:24:31;;;;;;;46.47;9.30;;;11.60;99.90;;;;;;5026376;28;20194;-82
2023/01/12 12:27:05;;;;;;;44.50;8.90;;;11.60;99.90;;;;;;5026118;28;20328;-78
2023/01/12 12:29:46;;;;;;;46.23;9.03;;;11.50;99.90;;;;;;5026198;28;20628;-79
2023/01/12 12:32:25;;;;;;;44.57;9.60;;;11.50;99.90;;;;;;5026759;28;20894;-79
2023/01/12 12:35:18;;;;;;;33.27;9.20;;;11.50;99.90;;;;;;5026582;28;20268;-85
2023/01/12 12:37:54;;;;;;;34.23;8.50;;;11.50;99.90;;;;;;5029359;28;20362;-91
2023/01/12 12:45:15;;;;;;;35.63;10.17;;;11.40;99.90;;;;;;5036306;28;20216;-80
2023/01/12 12:46:23;;;;;;;38.73;9.17;;;11.40;99.90;;;;;;5046283;28;20201;-80
2023/01/12 12:48:58;;;;;;;42.10;10.27;;;11.40;99.90;;;;;;5036264;28;20253;-77
2023/01/12 12:51:29;;;;;;;48.97;10.13;;;11.40;99.90;;;;;;5040948;28;20192;-77
2023/01/12 12:53:57;;;;;;;40.83;9.13;;;11.30;99.90;;;;;;5027907;28;20213;-82
2023/01/12 12:56:27;;;;;;;32.90;8.87;;;11.40;99.90;;;;;;5040080;28;20532;-76
2023/01/12 12:58:55;;;;;;;37.20;8.63;;;11.40;99.90;;;;;;5038455;28;20298;-78
2023/01/12 13:01:55;;;;;;;40.90;10.00;;;11.40;99.90;;;;;;5039625;28;20217;-79
2023/01/12 13:04:57;;;;;;;42.93;9.77;;;11.40;99.90;;;;;;5024679;28;20310;-77
2023/01/12 13:07:26;;;;;;;43.20;8.60;;;11.40;99.90;;;;;;5039312;28;20202;-79
2023/01/12 13:10:04;;;;;;;37.80;8.53;;;11.40;99.90;;;;;;5044566;28;20510;-78
2023/01/12 13:12:35;;;;;;;36.20;10.00;;;11.40;99.90;;;;;;5039702;28;20213;-87
2023/01/12 13:15:24;;;;;;;44.73;10.30;;;11.40;99.90;;;;;;5029744;28;20205;-80
2023/01/12 13:17:53;;;;;;;50.03;10.30;;;11.40;99.90;;;;;;5043234;28;20305;-77
2023/01/12 13:20:52;;;;;;;42.77;9.60;;;11.40;99.90;;;;;;5033332;28;20198;-78
2023/01/12 13:23:45;;;;;;;35.63;8.80;;;11.30;99.90;;;;;;5035332;28;20199;-79
2023/01/12 13:26:45;;;;;;;51.77;9.27;;;11.30;99.90;;;;;;5039308;28;20271;-77
2023/01/12 13:29:40;;;;;;;45.17;8.40;;;11.30;99.90;;;;;;5036491;28;20249;-78
2023/01/12 13:35:50;;;;;;;42.87;8.60;;;11.30;99.90;;;;;;5024722;22;20246;-77